Time;durP1;ratioP1;P1;durP2;ratioP2;P2;SDS_P1;SDS_P2;PMS_P1;PMS_P2;Temp;Humidity;BMP_temperature;BMP_pressure;BME280_temperature;BME280_humidity;BME280_pressure;Samples;Min_cycle;Max_cycle;Signal;HPM_P1;HPM_P2
2023/07/23 00:02:18;;;;;;;0.00;0.00;;;18.60;86.60;;;;;;5090852;28;20176;-71
2023/07/23 00:04:43;;;;;;;0.00;0.00;;;18.50;86.60;;;;;;5090931;28;20191;-72
2023/07/23 00:07:09;;;;;;;0.00;0.00;;;18.60;86.60;;;;;;5090530;28;20541;-71
2023/07/23 00:09:34;;;;;;;0.10;0.10;;;18.60;86.60;;;;;;5090736;28;20844;-72
2023/07/23 00:12:01;;;;;;;0.03;0.03;;;18.60;86.70;;;;;;5090817;28;20238;-71
2023/07/23 00:14:26;;;;;;;0.03;0.03;;;18.60;86.70;;;;;;5090750;28;20592;-71
2023/07/23 00:16:52;;;;;;;0.00;0.00;;;18.60;86.80;;;;;;5090134;28;20172;-71
2023/07/23 00:19:21;;;;;;;0.00;0.00;;;18.60;86.70;;;;;;5090578;28;20212;-71
2023/07/23 00:21:49;;;;;;;0.00;0.00;;;18.60;86.70;;;;;;5089137;28;20719;-71
2023/07/23 00:24:17;;;;;;;0.00;0.00;;;18.60;86.80;;;;;;5090515;28;20208;-71
2023/07/23 00:26:42;;;;;;;0.00;0.00;;;18.70;86.90;;;;;;5090736;28;20238;-70
2023/07/23 00:29:08;;;;;;;0.00;0.00;;;18.70;87.40;;;;;;5090742;28;20208;-71
2023/07/23 00:31:33;;;;;;;0.00;0.00;;;18.70;87.50;;;;;;5090351;28;20208;-71
2023/07/23 00:33:59;;;;;;;0.00;0.00;;;18.70;87.50;;;;;;5086362;28;20183;-71
2023/07/23 00:36:24;;;;;;;0.00;0.00;;;18.60;87.40;;;;;;5088432;28;20176;-71
2023/07/23 00:38:50;;;;;;;0.00;0.00;;;18.60;87.80;;;;;;5090575;28;20733;-71
2023/07/23 00:41:15;;;;;;;0.00;0.00;;;18.70;88.10;;;;;;5090613;28;20217;-71
2023/07/23 00:43:41;;;;;;;0.00;0.00;;;18.60;88.20;;;;;;5092420;28;20225;-71
2023/07/23 00:46:08;;;;;;;0.00;0.00;;;18.60;88.50;;;;;;5094553;28;20173;-71
2023/07/23 00:48:34;;;;;;;0.15;0.15;;;18.60;88.50;;;;;;5093808;28;20184;-72
2023/07/23 00:51:00;;;;;;;0.00;0.00;;;18.60;89.10;;;;;;5094000;28;20314;-71
2023/07/23 00:53:26;;;;;;;0.00;0.00;;;18.60;89.30;;;;;;5093052;28;20211;-71
2023/07/23 00:55:53;;;;;;;0.00;0.00;;;18.50;89.60;;;;;;5083243;28;20255;-71
2023/07/23 00:58:19;;;;;;;0.00;0.00;;;18.60;90.00;;;;;;5093454;28;20212;-71
2023/07/23 01:00:44;;;;;;;0.05;0.05;;;18.50;90.10;;;;;;5092457;28;20191;-71
2023/07/23 01:03:10;;;;;;;0.00;0.00;;;18.50;90.20;;;;;;5093898;28;20570;-72
2023/07/23 01:05:38;;;;;;;0.00;0.00;;;18.50;90.30;;;;;;5094051;28;20184;-71
2023/07/23 01:08:04;;;;;;;0.00;0.00;;;18.50;90.40;;;;;;5093867;28;20156;-71
2023/07/23 01:10:32;;;;;;;0.00;0.00;;;18.40;90.40;;;;;;5093247;28;20315;-71
2023/07/23 01:12:57;;;;;;;0.00;0.00;;;18.40;90.60;;;;;;5093979;28;20237;-71
2023/07/23 01:15:23;;;;;;;0.00;0.00;;;18.40;90.70;;;;;;5093559;28;20180;-71
2023/07/23 01:17:50;;;;;;;0.00;0.00;;;18.40;90.90;;;;;;5093481;28;20176;-71
2023/07/23 01:20:16;;;;;;;0.00;0.00;;;18.40;91.50;;;;;;5093577;28;20180;-71
2023/07/23 01:22:41;;;;;;;0.00;0.00;;;18.30;91.60;;;;;;5093784;28;20218;-71
2023/07/23 01:25:07;;;;;;;0.00;0.00;;;18.30;91.80;;;;;;5093749;28;20180;-72
2023/07/23 01:27:33;;;;;;;0.00;0.00;;;18.20;92.00;;;;;;5092876;28;20219;-71
2023/07/23 01:29:59;;;;;;;0.00;0.00;;;18.20;92.20;;;;;;5093460;28;20212;-71
2023/07/23 01:32:24;;;;;;;0.00;0.00;;;18.20;92.30;;;;;;5088671;28;20545;-71
2023/07/23 01:34:51;;;;;;;0.00;0.00;;;18.10;92.50;;;;;;5082328;28;20180;-72
2023/07/23 01:37:17;;;;;;;0.00;0.00;;;18.00;92.70;;;;;;5093155;28;20622;-71
2023/07/23 01:39:43;;;;;;;0.00;0.00;;;18.00;92.90;;;;;;5075130;28;20187;-71
2023/07/23 01:42:13;;;;;;;0.00;0.00;;;18.00;93.20;;;;;;5093137;28;20658;-71
2023/07/23 01:44:38;;;;;;;0.00;0.00;;;17.90;93.40;;;;;;5093367;28;20173;-71
2023/07/23 01:47:04;;;;;;;0.00;0.00;;;17.90;93.50;;;;;;5093437;28;20219;-71
2023/07/23 01:49:30;;;;;;;0.00;0.00;;;17.90;93.70;;;;;;5091616;28;20629;-71
2023/07/23 01:51:55;;;;;;;0.00;0.00;;;17.80;94.10;;;;;;5093088;28;20647;-71
2023/07/23 01:54:21;;;;;;;0.00;0.00;;;17.80;94.30;;;;;;5092693;28;20179;-71
2023/07/23 01:56:47;;;;;;;0.00;0.00;;;17.80;94.50;;;;;;5092788;28;20175;-72
2023/07/23 01:59:13;;;;;;;0.00;0.00;;;17.70;94.60;;;;;;5092670;28;20176;-72
2023/07/23 02:01:39;;;;;;;0.00;0.00;;;17.70;94.90;;;;;;5091915;28;20183;-72
2023/07/23 02:04:04;;;;;;;0.00;0.00;;;17.60;95.50;;;;;;5092529;28;20562;-71
2023/07/23 02:06:30;;;;;;;0.00;0.00;;;17.50;95.50;;;;;;5091930;28;20195;-72
2023/07/23 02:08:55;;;;;;;0.00;0.00;;;17.50;95.80;;;;;;5092526;28;20179;-72
2023/07/23 02:11:21;;;;;;;0.00;0.00;;;17.50;96.10;;;;;;5091947;28;20223;-71
2023/07/23 02:13:46;;;;;;;0.08;0.08;;;17.40;96.20;;;;;;5091485;28;20176;-72
2023/07/23 02:16:16;;;;;;;0.00;0.00;;;17.40;96.40;;;;;;5092193;28;20188;-73
2023/07/23 02:18:42;;;;;;;0.00;0.00;;;17.40;96.70;;;;;;5092582;28;20176;-73
2023/07/23 02:21:07;;;;;;;0.00;0.00;;;17.30;96.90;;;;;;5092424;28;20631;-72
2023/07/23 02:23:33;;;;;;;0.00;0.00;;;17.30;97.10;;;;;;5092517;28;20233;-73
2023/07/23 02:25:58;;;;;;;0.00;0.00;;;17.30;97.20;;;;;;5092290;28;20237;-71
2023/07/23 02:28:24;;;;;;;0.00;0.00;;;17.30;97.20;;;;;;5092116;28;20585;-71
2023/07/23 02:31:00;;;;;;;0.00;0.00;;;17.30;97.30;;;;;;5092030;28;20302;-72
2023/07/23 02:33:26;;;;;;;0.00;0.00;;;17.30;97.50;;;;;;5091084;28;20295;-71
2023/07/23 02:35:52;;;;;;;0.00;0.00;;;17.30;97.70;;;;;;5092006;28;20669;-71
2023/07/23 02:38:18;;;;;;;0.00;0.00;;;17.30;97.90;;;;;;5090475;28;20225;-72
2023/07/23 02:40:43;;;;;;;0.00;0.00;;;17.20;98.00;;;;;;5092314;28;20180;-71
2023/07/23 02:43:12;;;;;;;0.00;0.00;;;17.20;98.00;;;;;;5091378;28;20176;-71
2023/07/23 02:45:38;;;;;;;0.00;0.00;;;17.20;98.10;;;;;;5091778;28;20184;-71
2023/07/23 02:48:03;;;;;;;0.00;0.00;;;17.20;98.00;;;;;;5092193;28;20183;-71
2023/07/23 02:50:29;;;;;;;0.00;0.00;;;17.10;98.10;;;;;;5091859;28;20215;-72
2023/07/23 02:52:54;;;;;;;0.00;0.00;;;17.10;98.30;;;;;;5091609;28;20263;-72
2023/07/23 02:55:22;;;;;;;0.00;0.00;;;17.10;98.40;;;;;;5091817;28;20253;-72
2023/07/23 02:57:49;;;;;;;0.00;0.00;;;17.00;98.30;;;;;;5091348;28;20160;-71
2023/07/23 03:00:15;;;;;;;0.00;0.00;;;17.00;98.70;;;;;;5091761;28;20211;-71
2023/07/23 03:02:40;;;;;;;0.10;0.10;;;17.00;98.80;;;;;;5091483;28;20203;-71
2023/07/23 03:05:07;;;;;;;0.00;0.00;;;17.00;98.90;;;;;;5091558;28;20635;-71
2023/07/23 03:07:34;;;;;;;0.05;0.05;;;16.90;99.00;;;;;;5090647;28;20186;-72
2023/07/23 03:10:00;;;;;;;0.00;0.00;;;17.00;99.20;;;;;;5090371;28;20687;-71
2023/07/23 03:12:25;;;;;;;0.00;0.00;;;16.90;99.40;;;;;;5091463;28;20180;-71
2023/07/23 03:14:52;;;;;;;0.00;0.00;;;16.90;99.40;;;;;;5091752;28;20272;-71
2023/07/23 03:17:18;;;;;;;0.00;0.00;;;16.80;99.50;;;;;;5091532;28;20728;-71
2023/07/23 03:19:43;;;;;;;0.00;0.00;;;16.80;99.60;;;;;;5090424;28;20184;-72
2023/07/23 03:22:09;;;;;;;0.00;0.00;;;16.80;99.80;;;;;;5091228;28;20183;-71
2023/07/23 03:24:34;;;;;;;0.00;0.00;;;16.70;99.90;;;;;;5091585;28;20238;-71
2023/07/23 03:27:00;;;;;;;0.00;0.00;;;16.70;99.90;;;;;;5090018;28;20263;-71
2023/07/23 03:29:25;;;;;;;0.00;0.00;;;16.60;99.90;;;;;;5091146;28;20264;-71
2023/07/23 03:31:51;;;;;;;0.90;0.90;;;16.70;99.90;;;;;;5091192;28;20591;-71
2023/07/23 03:34:17;;;;;;;0.00;0.00;;;16.60;99.90;;;;;;5091173;28;20627;-71
2023/07/23 03:36:42;;;;;;;0.00;0.00;;;16.60;99.90;;;;;;5091135;28;20631;-72
2023/07/23 03:39:08;;;;;;;0.00;0.00;;;16.50;99.90;;;;;;5091156;28;20184;-71
2023/07/23 03:41:34;;;;;;;0.00;0.00;;;16.50;99.90;;;;;;5091058;28;20172;-74
2023/07/23 03:43:59;;;;;;;0.00;0.00;;;16.50;99.90;;;;;;5091299;28;20289;-73
2023/07/23 03:46:25;;;;;;;0.00;0.00;;;16.50;99.90;;;;;;5090909;28;20252;-72
2023/07/23 03:48:50;;;;;;;0.08;0.08;;;16.50;99.90;;;;;;5089656;28;20267;-73
2023/07/23 03:51:18;;;;;;;0.00;0.00;;;16.50;99.90;;;;;;5090932;28;20685;-72
2023/07/23 03:53:44;;;;;;;0.00;0.00;;;16.50;99.90;;;;;;5090994;28;20168;-72
2023/07/23 03:56:09;;;;;;;0.00;0.00;;;16.40;99.90;;;;;;5091013;28;20522;-72
2023/07/23 03:58:35;;;;;;;0.00;0.00;;;16.40;99.90;;;;;;5090967;28;20183;-71
2023/07/23 04:01:00;;;;;;;0.00;0.00;;;16.40;99.90;;;;;;5091056;28;20172;-71
2023/07/23 04:03:26;;;;;;;0.00;0.00;;;16.50;99.90;;;;;;5089794;28;20627;-67
2023/07/23 04:05:51;;;;;;;0.00;0.00;;;16.50;99.90;;;;;;5090993;28;20212;-70
2023/07/23 04:08:17;;;;;;;0.00;0.00;;;16.50;99.90;;;;;;5090804;28;20173;-67
2023/07/23 04:10:42;;;;;;;0.00;0.00;;;16.50;99.90;;;;;;5090653;28;20235;-68
2023/07/23 04:13:09;;;;;;;0.00;0.00;;;16.60;99.90;;;;;;5090584;28;20172;-69
2023/07/23 04:15:37;;;;;;;0.00;0.00;;;16.60;99.90;;;;;;5090535;28;20261;-70
2023/07/23 04:18:11;;;;;;;0.00;0.00;;;16.60;99.90;;;;;;5091433;28;20156;-69
2023/07/23 04:20:37;;;;;;;0.00;0.00;;;16.70;99.90;;;;;;5094536;28;20168;-68
2023/07/23 04:23:02;;;;;;;0.00;0.00;;;16.70;99.90;;;;;;5094715;28;20512;-69
2023/07/23 04:25:28;;;;;;;0.00;0.00;;;16.70;99.90;;;;;;5094360;28;20212;-69
2023/07/23 04:27:53;;;;;;;0.00;0.00;;;16.80;99.90;;;;;;5094267;28;20290;-67
2023/07/23 04:30:19;;;;;;;0.03;0.03;;;16.80;99.90;;;;;;5094166;28;20212;-69
2023/07/23 04:32:44;;;;;;;0.00;0.00;;;17.00;99.90;;;;;;5093006;28;20184;-69
2023/07/23 04:35:10;;;;;;;0.00;0.00;;;17.10;99.90;;;;;;5093476;28;20191;-69
2023/07/23 04:37:36;;;;;;;0.00;0.00;;;17.20;99.90;;;;;;5094256;28;20179;-69
2023/07/23 04:40:01;;;;;;;0.00;0.00;;;17.30;99.90;;;;;;5092838;28;20194;-69
2023/07/23 04:42:27;;;;;;;0.00;0.00;;;17.40;99.90;;;;;;5094057;28;20183;-69
2023/07/23 04:44:52;;;;;;;0.00;0.00;;;17.60;99.90;;;;;;5093992;28;20183;-69
2023/07/23 04:47:18;;;;;;;0.00;0.00;;;17.70;99.90;;;;;;5094310;28;20184;-69
2023/07/23 04:49:43;;;;;;;0.00;0.00;;;17.90;99.90;;;;;;5093657;28;20211;-69
2023/07/23 04:52:09;;;;;;;0.00;0.00;;;18.10;99.90;;;;;;5094113;28;21055;-69
2023/07/23 04:54:34;;;;;;;0.00;0.00;;;18.40;99.60;;;;;;5092358;28;20183;-69
2023/07/23 04:57:00;;;;;;;0.00;0.00;;;18.60;99.00;;;;;;5092104;28;20639;-69
2023/07/23 04:59:25;;;;;;;0.00;0.00;;;18.90;98.40;;;;;;5093735;28;20297;-70
2023/07/23 05:01:51;;;;;;;0.00;0.00;;;19.20;97.50;;;;;;5093314;28;20176;-70
2023/07/23 05:04:16;;;;;;;0.00;0.00;;;19.40;97.00;;;;;;5093389;28;20176;-71
2023/07/23 05:06:42;;;;;;;0.00;0.00;;;19.60;96.70;;;;;;5093926;28;20180;-70
2023/07/23 05:09:07;;;;;;;0.00;0.00;;;19.90;96.50;;;;;;5093653;28;20571;-70
2023/07/23 05:11:33;;;;;;;0.00;0.00;;;20.20;95.80;;;;;;5093633;28;20176;-70
2023/07/23 05:13:58;;;;;;;0.00;0.00;;;20.50;95.40;;;;;;5093242;28;20188;-71
2023/07/23 05:16:24;;;;;;;0.00;0.00;;;21.00;95.10;;;;;;5093513;28;20570;-70
2023/07/23 05:18:49;;;;;;;0.00;0.00;;;21.40;93.80;;;;;;5093570;28;20180;-70
2023/07/23 05:21:15;;;;;;;0.00;0.00;;;21.40;92.60;;;;;;5093437;28;20203;-70
2023/07/23 05:23:43;;;;;;;0.00;0.00;;;21.60;92.20;;;;;;5093563;28;20290;-71
2023/07/23 05:26:08;;;;;;;0.00;0.00;;;21.60;91.80;;;;;;5093457;28;20164;-70
2023/07/23 05:28:34;;;;;;;0.00;0.00;;;21.60;91.20;;;;;;5092771;28;20231;-71
2023/07/23 05:30:59;;;;;;;0.00;0.00;;;21.70;90.90;;;;;;5091909;28;20208;-71
2023/07/23 05:33:25;;;;;;;0.00;0.00;;;21.80;90.90;;;;;;5093315;28;20537;-70
2023/07/23 05:35:52;;;;;;;0.00;0.00;;;22.10;90.40;;;;;;5092713;28;20168;-70
2023/07/23 05:38:18;;;;;;;0.00;0.00;;;22.60;90.10;;;;;;5093066;28;20229;-71
2023/07/23 05:40:43;;;;;;;0.00;0.00;;;23.10;87.50;;;;;;5092876;28;20188;-68
2023/07/23 05:43:16;;;;;;;0.00;0.00;;;23.60;85.50;;;;;;5093032;28;20274;-68
2023/07/23 05:45:42;;;;;;;0.00;0.00;;;24.20;83.10;;;;;;5092959;28;20183;-68
2023/07/23 05:48:07;;;;;;;0.00;0.00;;;24.50;80.70;;;;;;5092608;28;20168;-68
2023/07/23 05:50:33;;;;;;;0.00;0.00;;;25.00;79.70;;;;;;5092634;28;20216;-68
2023/07/23 05:52:59;;;;;;;0.00;0.00;;;25.40;77.80;;;;;;5092754;28;20511;-68
2023/07/23 05:55:24;;;;;;;0.00;0.00;;;25.80;75.50;;;;;;5092875;28;20184;-68
2023/07/23 05:57:50;;;;;;;0.00;0.00;;;26.20;73.20;;;;;;5092657;28;20532;-68
2023/07/23 06:00:16;;;;;;;0.30;0.30;;;26.10;71.50;;;;;;5092124;28;20184;-68
2023/07/23 06:02:41;;;;;;;0.00;0.00;;;25.60;72.30;;;;;;5092352;28;20255;-68
2023/07/23 06:05:07;;;;;;;0.00;0.00;;;24.90;73.10;;;;;;5092522;28;20176;-68
2023/07/23 06:07:32;;;;;;;0.00;0.00;;;24.40;74.70;;;;;;5090995;28;20283;-68
2023/07/23 06:09:58;;;;;;;0.00;0.00;;;24.00;75.50;;;;;;5091913;28;20239;-68
2023/07/23 06:12:24;;;;;;;0.00;0.00;;;23.80;77.10;;;;;;5092224;28;20177;-68
2023/07/23 06:14:49;;;;;;;0.00;0.00;;;24.20;77.60;;;;;;5091782;28;20220;-68
2023/07/23 06:17:15;;;;;;;0.00;0.00;;;24.60;76.30;;;;;;5092167;28;20184;-68
2023/07/23 06:19:40;;;;;;;0.00;0.00;;;24.70;75.90;;;;;;5092332;28;20259;-68
2023/07/23 06:22:06;;;;;;;0.00;0.00;;;24.60;76.20;;;;;;5091830;28;20180;-68
2023/07/23 06:24:31;;;;;;;0.00;0.00;;;24.50;75.90;;;;;;5091999;28;20225;-68
2023/07/23 06:26:57;;;;;;;0.00;0.00;;;24.90;75.80;;;;;;5091972;28;20168;-68
2023/07/23 06:29:22;;;;;;;0.00;0.00;;;25.20;75.70;;;;;;5091608;28;20176;-68
2023/07/23 06:31:48;;;;;;;0.00;0.00;;;25.40;74.50;;;;;;5091890;28;20199;-70
2023/07/23 06:34:13;;;;;;;1.13;0.43;;;25.40;73.40;;;;;;5111123;28;20175;-68
2023/07/23 06:36:39;;;;;;;0.10;0.10;;;25.70;73.50;;;;;;5082720;28;20281;-69
2023/07/23 06:39:05;;;;;;;0.00;0.00;;;26.20;72.10;;;;;;5071749;28;20165;-69
2023/07/23 06:41:30;;;;;;;0.00;0.00;;;26.60;70.00;;;;;;5083130;28;20259;-69
2023/07/23 06:43:56;;;;;;;0.00;0.00;;;27.50;68.80;;;;;;5091620;28;20183;-70
2023/07/23 06:46:21;;;;;;;0.00;0.00;;;28.40;67.40;;;;;;5091019;28;20233;-69
2023/07/23 06:48:47;;;;;;;0.45;0.45;;;29.20;63.90;;;;;;5091494;28;20729;-65
2023/07/23 06:51:13;;;;;;;0.00;0.00;;;29.40;61.30;;;;;;5091280;28;20243;-69
2023/07/23 06:53:38;;;;;;;0.00;0.00;;;29.70;59.80;;;;;;5091095;28;20226;-65
2023/07/23 06:56:06;;;;;;;0.00;0.00;;;29.60;58.50;;;;;;5091733;28;20168;-66
2023/07/23 06:58:36;;;;;;;0.00;0.00;;;29.70;58.70;;;;;;5091472;28;20267;-65
2023/07/23 07:01:02;;;;;;;0.10;0.10;;;29.10;57.00;;;;;;5089153;28;20206;-66
2023/07/23 07:03:28;;;;;;;0.00;0.00;;;28.50;58.30;;;;;;5091232;28;20635;-68
2023/07/23 07:05:54;;;;;;;0.00;0.00;;;28.10;59.20;;;;;;5091241;28;20172;-69
2023/07/23 07:08:20;;;;;;;0.00;0.00;;;27.90;60.10;;;;;;5091341;28;20237;-66
2023/07/23 07:10:49;;;;;;;0.00;0.00;;;27.50;59.90;;;;;;5091014;28;20204;-68
2023/07/23 07:13:15;;;;;;;0.00;0.00;;;26.90;61.30;;;;;;5091608;28;20185;-67
2023/07/23 07:15:41;;;;;;;0.00;0.00;;;26.80;62.00;;;;;;5090578;28;20571;-67
2023/07/23 07:18:07;;;;;;;0.00;0.00;;;27.00;62.90;;;;;;5091558;28;20202;-67
2023/07/23 07:20:32;;;;;;;0.00;0.00;;;27.60;63.20;;;;;;5091582;28;20579;-67
2023/07/23 07:22:58;;;;;;;0.00;0.00;;;28.20;61.40;;;;;;5090247;28;20539;-68
2023/07/23 07:25:23;;;;;;;0.00;0.00;;;28.30;59.60;;;;;;5091354;28;20186;-68
2023/07/23 07:27:49;;;;;;;0.00;0.00;;;27.60;59.30;;;;;;5091396;28;20231;-68
2023/07/23 07:30:14;;;;;;;0.00;0.00;;;26.90;60.60;;;;;;5091241;28;20250;-68
2023/07/23 07:32:40;;;;;;;0.00;0.00;;;26.50;62.10;;;;;;5091291;28;20172;-67
2023/07/23 07:35:06;;;;;;;0.00;0.00;;;26.20;64.00;;;;;;5091100;28;20635;-68
2023/07/23 07:37:31;;;;;;;0.00;0.00;;;25.80;64.40;;;;;;5091376;28;20638;-68
2023/07/23 07:39:57;;;;;;;0.00;0.00;;;25.50;65.60;;;;;;5091252;28;20554;-67
2023/07/23 07:42:22;;;;;;;0.00;0.00;;;25.20;66.60;;;;;;5090987;28;20176;-67
2023/07/23 07:44:48;;;;;;;0.00;0.00;;;24.90;66.80;;;;;;5091279;28;20180;-67
2023/07/23 07:47:15;;;;;;;0.00;0.00;;;24.60;68.10;;;;;;5091082;28;20179;-67
2023/07/23 07:49:40;;;;;;;0.00;0.00;;;24.50;68.50;;;;;;5093558;28;20221;-67
2023/07/23 07:52:06;;;;;;;0.00;0.00;;;24.40;69.20;;;;;;5093336;28;20176;-67
2023/07/23 07:54:35;;;;;;;0.00;0.00;;;24.40;69.20;;;;;;5090482;28;20179;-67
2023/07/23 07:57:01;;;;;;;0.05;0.05;;;24.50;70.00;;;;;;5090891;28;20259;-67
2023/07/23 07:59:26;;;;;;;0.00;0.00;;;24.50;69.80;;;;;;5091055;28;20251;-67
2023/07/23 08:01:52;;;;;;;0.00;0.00;;;24.50;69.40;;;;;;5090574;28;20183;-67
2023/07/23 08:04:18;;;;;;;0.00;0.00;;;24.40;69.60;;;;;;5090518;28;20293;-67
2023/07/23 08:06:44;;;;;;;0.00;0.00;;;24.40;70.10;;;;;;5090691;28;20172;-67
2023/07/23 08:09:12;;;;;;;0.00;0.00;;;24.50;70.50;;;;;;5090143;28;20180;-68
2023/07/23 08:11:38;;;;;;;0.00;0.00;;;24.50;70.90;;;;;;5090677;28;20188;-67
2023/07/23 08:14:04;;;;;;;0.00;0.00;;;24.40;70.10;;;;;;5089668;28;20176;-68
2023/07/23 08:16:30;;;;;;;0.00;0.00;;;24.20;70.40;;;;;;5090656;28;20685;-66
2023/07/23 08:18:56;;;;;;;0.00;0.00;;;24.10;71.00;;;;;;5090663;28;20187;-66
2023/07/23 08:21:22;;;;;;;0.00;0.00;;;24.00;71.80;;;;;;5089080;28;20666;-67
2023/07/23 08:23:49;;;;;;;0.00;0.00;;;24.10;72.40;;;;;;5090972;28;20177;-66
2023/07/23 08:26:18;;;;;;;0.00;0.00;;;24.20;72.60;;;;;;5104429;28;20186;-66
2023/07/23 08:28:51;;;;;;;0.00;0.00;;;24.30;72.40;;;;;;5089617;28;20249;-67
2023/07/23 08:31:18;;;;;;;0.00;0.00;;;24.40;72.30;;;;;;5090038;28;20679;-67
2023/07/23 08:33:46;;;;;;;0.00;0.00;;;24.40;72.20;;;;;;5088651;28;20176;-67
2023/07/23 08:36:12;;;;;;;0.00;0.00;;;24.40;72.50;;;;;;5086278;28;20267;-67
2023/07/23 08:38:38;;;;;;;0.03;0.03;;;24.30;71.50;;;;;;5090263;28;20615;-67
2023/07/23 08:41:21;;;;;;;0.00;0.00;;;24.40;72.60;;;;;;5090154;28;20592;-67
2023/07/23 08:44:14;;;;;;;0.00;0.00;;;24.30;71.90;;;;;;5089849;28;20180;-67
2023/07/23 08:46:45;;;;;;;0.00;0.00;;;24.20;71.80;;;;;;5077737;28;20176;-68
2023/07/23 08:49:11;;;;;;;0.00;0.00;;;24.10;72.10;;;;;;5090037;28;20184;-67
2023/07/23 08:51:42;;;;;;;0.00;0.00;;;24.10;72.50;;;;;;5089756;28;20219;-67
2023/07/23 08:54:08;;;;;;;0.00;0.00;;;24.20;73.50;;;;;;5079637;28;20175;-67
2023/07/23 08:56:34;;;;;;;0.00;0.00;;;24.30;72.70;;;;;;5090390;28;20177;-67
2023/07/23 08:59:04;;;;;;;0.00;0.00;;;24.50;73.00;;;;;;5090307;28;20188;-68
2023/07/23 09:01:38;;;;;;;0.00;0.00;;;24.70;71.90;;;;;;5089791;28;20208;-68
2023/07/23 09:04:05;;;;;;;0.00;0.00;;;24.70;71.80;;;;;;5090100;28;20184;-67
2023/07/23 09:06:32;;;;;;;0.00;0.00;;;24.90;72.50;;;;;;5092451;28;20173;-68
2023/07/23 09:09:03;;;;;;;0.00;0.00;;;25.10;72.80;;;;;;5092671;28;20668;-68
2023/07/23 09:11:29;;;;;;;0.00;0.00;;;25.30;72.50;;;;;;5093571;28;20208;-68
2023/07/23 09:13:59;;;;;;;0.00;0.00;;;25.50;71.10;;;;;;5101657;28;20167;-68
2023/07/23 09:16:24;;;;;;;0.00;0.00;;;25.50;70.10;;;;;;5093625;28;20164;-67
2023/07/23 09:18:50;;;;;;;0.03;0.03;;;25.60;70.00;;;;;;5093165;28;20180;-68
2023/07/23 09:21:23;;;;;;;0.00;0.00;;;25.50;69.90;;;;;;5093618;28;20199;-68
2023/07/23 09:23:53;;;;;;;0.00;0.00;;;25.50;69.90;;;;;;5093210;28;20184;-67
2023/07/23 09:26:24;;;;;;;0.00;0.00;;;25.50;70.40;;;;;;5093508;28;20236;-70
2023/07/23 09:28:51;;;;;;;0.00;0.00;;;25.60;69.20;;;;;;5093643;28;20216;-68
2023/07/23 09:31:24;;;;;;;0.00;0.00;;;25.50;69.40;;;;;;5093028;28;20200;-68
2023/07/23 09:33:52;;;;;;;0.00;0.00;;;25.50;69.20;;;;;;5093683;28;20180;-69
2023/07/23 09:36:20;;;;;;;0.00;0.00;;;25.90;70.10;;;;;;5089749;28;20594;-68
2023/07/23 09:39:05;;;;;;;0.00;0.00;;;26.40;70.20;;;;;;5100045;28;20166;-67
2023/07/23 09:41:33;;;;;;;0.00;0.00;;;26.80;66.80;;;;;;5088394;28;20202;-68
2023/07/23 09:44:07;;;;;;;0.00;0.00;;;27.20;66.70;;;;;;5102171;28;20212;-68
2023/07/23 09:46:33;;;;;;;0.00;0.00;;;27.60;65.50;;;;;;5093335;28;20174;-68
2023/07/23 09:48:59;;;;;;;0.00;0.00;;;28.10;63.80;;;;;;5093298;28;20626;-68
2023/07/23 09:51:25;;;;;;;0.00;0.00;;;28.40;63.20;;;;;;5093393;28;20250;-68
2023/07/23 09:53:51;;;;;;;0.00;0.00;;;28.70;62.00;;;;;;5093340;28;20267;-68
2023/07/23 09:56:18;;;;;;;0.00;0.00;;;29.00;61.40;;;;;;5108245;28;20274;-68
2023/07/23 09:58:48;;;;;;;0.00;0.00;;;29.10;60.00;;;;;;5113669;28;20167;-69
2023/07/23 10:01:16;;;;;;;0.00;0.00;;;29.00;59.80;;;;;;5105851;28;20518;-68
2023/07/23 10:03:43;;;;;;;0.00;0.00;;;29.20;60.10;;;;;;5092872;28;20187;-68
2023/07/23 10:06:11;;;;;;;0.00;0.00;;;29.30;60.30;;;;;;5101872;28;20254;-69
2023/07/23 10:08:42;;;;;;;0.68;0.47;;;29.30;59.60;;;;;;5098623;28;20180;-68
2023/07/23 10:11:12;;;;;;;0.00;0.00;;;29.10;58.40;;;;;;5092092;28;20219;-68
2023/07/23 10:13:41;;;;;;;0.00;0.00;;;28.90;58.90;;;;;;5089192;28;20165;-69
2023/07/23 10:16:11;;;;;;;0.00;0.00;;;28.90;59.40;;;;;;5092524;28;20175;-68
2023/07/23 10:18:40;;;;;;;0.00;0.00;;;28.80;59.50;;;;;;5092827;28;20180;-69
2023/07/23 10:21:08;;;;;;;0.00;0.00;;;29.00;59.30;;;;;;5092809;28;20208;-68
2023/07/23 10:23:35;;;;;;;0.00;0.00;;;29.10;59.10;;;;;;5091421;28;20348;-68
2023/07/23 10:26:27;;;;;;;0.00;0.00;;;29.10;58.30;;;;;;5092687;28;20184;-68
2023/07/23 10:29:10;;;;;;;0.00;0.00;;;29.20;58.30;;;;;;5092458;28;20272;-69
2023/07/23 10:31:36;;;;;;;0.00;0.00;;;28.80;57.10;;;;;;5092480;28;20219;-69
2023/07/23 10:34:22;;;;;;;0.00;0.00;;;28.40;58.30;;;;;;5092377;28;20165;-69
2023/07/23 10:37:12;;;;;;;0.00;0.00;;;28.00;59.30;;;;;;5092379;28;20319;-68
2023/07/23 10:39:44;;;;;;;0.00;0.00;;;28.80;61.80;;;;;;5092408;28;20172;-69
2023/07/23 10:42:30;;;;;;;0.10;0.10;;;29.30;59.50;;;;;;5092343;28;20180;-68
2023/07/23 10:45:23;;;;;;;0.00;0.00;;;29.60;58.70;;;;;;5087187;28;20185;-68
2023/07/23 10:47:57;;;;;;;0.00;0.00;;;29.70;57.50;;;;;;5072960;28;20181;-68
2023/07/23 10:50:24;;;;;;;0.00;0.00;;;29.80;57.50;;;;;;5071675;28;20563;-68
2023/07/23 10:52:52;;;;;;;0.00;0.00;;;29.90;58.00;;;;;;5080830;28;20168;-68
2023/07/23 10:55:50;;;;;;;0.00;0.00;;;29.90;57.80;;;;;;5091518;28;20179;-68
2023/07/23 10:58:21;;;;;;;0.00;0.00;;;30.00;58.40;;;;;;5091572;28;20176;-68
2023/07/23 11:00:53;;;;;;;0.00;0.00;;;30.20;58.30;;;;;;5091774;28;20203;-69
2023/07/23 11:03:20;;;;;;;0.00;0.00;;;29.90;55.90;;;;;;5079568;28;20180;-69
2023/07/23 11:05:46;;;;;;;0.03;0.03;;;29.20;56.40;;;;;;5091738;28;20168;-70
2023/07/23 11:08:26;;;;;;;0.00;0.00;;;29.00;58.00;;;;;;5091467;28;20177;-68
2023/07/23 11:11:00;;;;;;;0.00;0.00;;;28.90;58.20;;;;;;5084479;28;20207;-68
2023/07/23 11:13:34;;;;;;;0.00;0.00;;;28.50;58.20;;;;;;5070644;28;20580;-68
2023/07/23 11:16:01;;;;;;;0.00;0.00;;;28.20;59.30;;;;;;5090254;28;20175;-69
2023/07/23 11:18:31;;;;;;;0.00;0.00;;;28.10;59.20;;;;;;5091340;28;20734;-69
2023/07/23 11:20:57;;;;;;;0.00;0.00;;;28.00;59.50;;;;;;5091319;28;20172;-69
2023/07/23 11:23:25;;;;;;;0.00;0.00;;;28.10;59.90;;;;;;5090979;28;20176;-68
2023/07/23 11:25:51;;;;;;;0.00;0.00;;;28.10;60.30;;;;;;5091378;28;20180;-69
2023/07/23 11:28:21;;;;;;;0.30;0.30;;;28.00;60.50;;;;;;5089872;28;20223;-69
2023/07/23 11:30:49;;;;;;;0.00;0.00;;;27.90;60.80;;;;;;5091273;28;20659;-68
2023/07/23 11:33:16;;;;;;;0.00;0.00;;;27.80;60.00;;;;;;5091297;28;20175;-70
2023/07/23 11:35:42;;;;;;;0.00;0.00;;;27.80;60.50;;;;;;5091107;28;20700;-70
2023/07/23 11:38:08;;;;;;;0.00;0.00;;;27.80;59.90;;;;;;5091128;28;20255;-69
2023/07/23 11:40:34;;;;;;;0.00;0.00;;;27.50;60.20;;;;;;5091123;28;20261;-69
2023/07/23 11:43:07;;;;;;;0.03;0.03;;;27.40;61.00;;;;;;5091064;28;20172;-69
2023/07/23 11:45:43;;;;;;;0.00;0.00;;;27.20;61.70;;;;;;5071919;28;20181;-69
2023/07/23 11:48:17;;;;;;;0.00;0.00;;;27.30;62.20;;;;;;5070905;28;20169;-69
2023/07/23 11:50:45;;;;;;;0.00;0.00;;;27.20;62.10;;;;;;5070641;28;20663;-69
2023/07/23 11:53:10;;;;;;;0.00;0.00;;;27.20;61.90;;;;;;5080909;28;20262;-69
2023/07/23 11:55:36;;;;;;;0.00;0.00;;;27.10;61.90;;;;;;5070942;28;20251;-69
2023/07/23 11:58:02;;;;;;;0.00;0.00;;;26.90;62.80;;;;;;5072381;28;20216;-69
2023/07/23 12:00:37;;;;;;;0.00;0.00;;;26.90;63.20;;;;;;5071793;28;20180;-69
2023/07/23 12:03:07;;;;;;;0.00;0.00;;;26.90;63.70;;;;;;5090893;28;20160;-69
2023/07/23 12:05:33;;;;;;;0.00;0.00;;;27.00;63.20;;;;;;5090963;28;20184;-69
2023/07/23 12:07:59;;;;;;;0.00;0.00;;;27.00;63.70;;;;;;5090933;28;20240;-69
2023/07/23 12:10:28;;;;;;;0.00;0.00;;;26.90;63.50;;;;;;5090772;28;20659;-69
2023/07/23 12:12:53;;;;;;;0.00;0.00;;;26.80;63.40;;;;;;5090856;28;20219;-69
2023/07/23 12:15:19;;;;;;;0.00;0.00;;;26.70;64.40;;;;;;5090682;28;20566;-69
2023/07/23 12:17:45;;;;;;;0.00;0.00;;;26.60;64.80;;;;;;5090874;28;20172;-69
2023/07/23 12:20:16;;;;;;;0.00;0.00;;;26.60;64.10;;;;;;5091617;28;20178;-69
2023/07/23 12:22:55;;;;;;;0.00;0.00;;;26.50;63.80;;;;;;5110388;28;20333;-69
2023/07/23 12:25:22;;;;;;;0.00;0.00;;;26.40;64.20;;;;;;5110828;28;20673;-69
2023/07/23 12:27:48;;;;;;;0.00;0.00;;;26.30;64.20;;;;;;5110849;28;20560;-68
2023/07/23 12:30:14;;;;;;;0.08;0.08;;;26.20;64.60;;;;;;5110901;28;20209;-68
2023/07/23 12:32:39;;;;;;;0.00;0.00;;;26.20;64.90;;;;;;5111005;28;20183;-68
2023/07/23 12:35:06;;;;;;;0.00;0.00;;;26.20;65.00;;;;;;5111073;28;20170;-68
2023/07/23 12:37:34;;;;;;;0.00;0.00;;;26.20;65.10;;;;;;5109712;28;20180;-69
2023/07/23 12:40:00;;;;;;;0.00;0.00;;;26.20;65.20;;;;;;5113242;28;20289;-68
2023/07/23 12:42:25;;;;;;;0.00;0.00;;;26.10;65.60;;;;;;5114776;28;20273;-68
2023/07/23 12:44:51;;;;;;;0.00;0.00;;;26.10;65.70;;;;;;5113801;28;20179;-68
2023/07/23 12:47:16;;;;;;;0.00;0.00;;;26.10;65.50;;;;;;5114800;28;20175;-68
2023/07/23 12:49:42;;;;;;;0.00;0.00;;;26.10;65.30;;;;;;5114619;28;20215;-69